sensor_id;sensor_type;location;lat;lon;timestamp;temperature;humidity
33825;DHT22;20127;48.962;8.342;2023-02-27T00:01:58;0.20;93.10
33825;DHT22;20127;48.962;8.342;2023-02-27T00:04:59;0.20;93.10
33825;DHT22;20127;48.962;8.342;2023-02-27T00:08:01;0.20;93.20
33825;DHT22;20127;48.962;8.342;2023-02-27T00:11:05;0.20;93.50
33825;DHT22;20127;48.962;8.342;2023-02-27T00:14:06;0.20;93.60
33825;DHT22;20127;48.962;8.342;2023-02-27T00:17:08;0.20;93.80
33825;DHT22;20127;48.962;8.342;2023-02-27T00:20:15;0.20;93.90
33825;DHT22;20127;48.962;8.342;2023-02-27T00:23:17;0.20;94.00
33825;DHT22;20127;48.962;8.342;2023-02-27T00:26:20;0.20;94.00
33825;DHT22;20127;48.962;8.342;2023-02-27T00:29:22;0.20;94.00
33825;DHT22;20127;48.962;8.342;2023-02-27T00:32:24;0.10;94.20
33825;DHT22;20127;48.962;8.342;2023-02-27T00:35:25;0.10;94.30
33825;DHT22;20127;48.962;8.342;2023-02-27T00:38:27;0.10;94.20
33825;DHT22;20127;48.962;8.342;2023-02-27T00:41:30;0.10;94.20
33825;DHT22;20127;48.962;8.342;2023-02-27T00:44:32;0.00;94.30
33825;DHT22;20127;48.962;8.342;2023-02-27T00:47:34;0.00;94.50
33825;DHT22;20127;48.962;8.342;2023-02-27T00:50:36;0.00;94.60
33825;DHT22;20127;48.962;8.342;2023-02-27T00:53:38;0.00;94.80
33825;DHT22;20127;48.962;8.342;2023-02-27T00:56:41;0.00;94.80
33825;DHT22;20127;48.962;8.342;2023-02-27T00:59:43;0.00;95.00
33825;DHT22;20127;48.962;8.342;2023-02-27T01:02:45;0.00;95.10
33825;DHT22;20127;48.962;8.342;2023-02-27T01:05:47;0.00;95.30
33825;DHT22;20127;48.962;8.342;2023-02-27T01:08:49;0.00;95.20
33825;DHT22;20127;48.962;8.342;2023-02-27T01:11:52;0.00;95.30
33825;DHT22;20127;48.962;8.342;2023-02-27T01:14:53;0.00;95.40
33825;DHT22;20127;48.962;8.342;2023-02-27T01:17:55;0.00;95.60
33825;DHT22;20127;48.962;8.342;2023-02-27T01:20:57;0.00;95.70
33825;DHT22;20127;48.962;8.342;2023-02-27T01:23:59;0.00;95.90
33825;DHT22;20127;48.962;8.342;2023-02-27T01:27:02;0.00;95.80
33825;DHT22;20127;48.962;8.342;2023-02-27T01:30:04;0.00;96.00
33825;DHT22;20127;48.962;8.342;2023-02-27T01:33:07;0.00;96.20
33825;DHT22;20127;48.962;8.342;2023-02-27T01:36:09;0.00;96.30
33825;DHT22;20127;48.962;8.342;2023-02-27T01:39:11;-0.10;96.20
33825;DHT22;20127;48.962;8.342;2023-02-27T01:42:19;-0.10;96.30
33825;DHT22;20127;48.962;8.342;2023-02-27T01:45:31;-0.10;96.30
33825;DHT22;20127;48.962;8.342;2023-02-27T01:48:34;-0.10;96.50
33825;DHT22;20127;48.962;8.342;2023-02-27T01:51:41;-0.10;96.50
33825;DHT22;20127;48.962;8.342;2023-02-27T01:54:43;-0.10;96.60
33825;DHT22;20127;48.962;8.342;2023-02-27T01:57:46;-0.20;96.70
33825;DHT22;20127;48.962;8.342;2023-02-27T02:00:50;-0.20;96.90
33825;DHT22;20127;48.962;8.342;2023-02-27T02:03:57;-0.10;96.90
33825;DHT22;20127;48.962;8.342;2023-02-27T02:07:02;-0.20;96.90
33825;DHT22;20127;48.962;8.342;2023-02-27T02:10:06;-0.20;97.10
33825;DHT22;20127;48.962;8.342;2023-02-27T02:13:09;-0.20;97.10
33825;DHT22;20127;48.962;8.342;2023-02-27T02:16:24;-0.20;97.30
33825;DHT22;20127;48.962;8.342;2023-02-27T02:19:48;-0.20;97.70
33825;DHT22;20127;48.962;8.342;2023-02-27T02:23:30;-0.30;97.50
33825;DHT22;20127;48.962;8.342;2023-02-27T02:26:45;-0.30;97.60
33825;DHT22;20127;48.962;8.342;2023-02-27T02:40:38;-0.30;97.80
33825;DHT22;20127;48.962;8.342;2023-02-27T02:43:50;-0.40;97.90
33825;DHT22;20127;48.962;8.342;2023-02-27T02:47:03;-0.30;98.10
33825;DHT22;20127;48.962;8.342;2023-02-27T02:50:10;-0.30;98.40
33825;DHT22;20127;48.962;8.342;2023-02-27T02:53:23;-0.30;98.50
33825;DHT22;20127;48.962;8.342;2023-02-27T02:56:31;-0.30;98.50
33825;DHT22;20127;48.962;8.342;2023-02-27T02:59:40;-0.30;98.50
33825;DHT22;20127;48.962;8.342;2023-02-27T03:02:47;-0.40;98.60
33825;DHT22;20127;48.962;8.342;2023-02-27T03:05:55;-0.30;98.80
33825;DHT22;20127;48.962;8.342;2023-02-27T03:09:10;-0.30;98.80
33825;DHT22;20127;48.962;8.342;2023-02-27T03:12:18;-0.40;98.80
33825;DHT22;20127;48.962;8.342;2023-02-27T03:15:25;-0.40;98.80
33825;DHT22;20127;48.962;8.342;2023-02-27T03:18:31;-0.40;98.90
33825;DHT22;20127;48.962;8.342;2023-02-27T03:21:39;-0.40;98.90
33825;DHT22;20127;48.962;8.342;2023-02-27T03:24:44;-0.40;98.90
33825;DHT22;20127;48.962;8.342;2023-02-27T03:27:52;-0.40;99.00
33825;DHT22;20127;48.962;8.342;2023-02-27T03:30:58;-0.40;99.10
33825;DHT22;20127;48.962;8.342;2023-02-27T03:34:07;-0.40;99.20
33825;DHT22;20127;48.962;8.342;2023-02-27T03:37:21;-0.40;99.10
33825;DHT22;20127;48.962;8.342;2023-02-27T03:40:28;-0.50;99.10
33825;DHT22;20127;48.962;8.342;2023-02-27T03:43:43;-0.40;99.20
33825;DHT22;20127;48.962;8.342;2023-02-27T03:46:45;-0.50;99.20
33825;DHT22;20127;48.962;8.342;2023-02-27T03:49:47;-0.50;99.20
33825;DHT22;20127;48.962;8.342;2023-02-27T03:52:51;-0.50;99.20
33825;DHT22;20127;48.962;8.342;2023-02-27T03:55:54;-0.50;99.30
33825;DHT22;20127;48.962;8.342;2023-02-27T03:58:58;-0.50;99.40
33825;DHT22;20127;48.962;8.342;2023-02-27T04:02:00;-0.40;99.50
33825;DHT22;20127;48.962;8.342;2023-02-27T04:05:03;-0.50;99.40
33825;DHT22;20127;48.962;8.342;2023-02-27T04:08:31;-0.50;99.40
33825;DHT22;20127;48.962;8.342;2023-02-27T04:11:48;-0.50;99.40
33825;DHT22;20127;48.962;8.342;2023-02-27T04:15:05;-0.50;99.50
33825;DHT22;20127;48.962;8.342;2023-02-27T04:18:18;-0.50;99.50
33825;DHT22;20127;48.962;8.342;2023-02-27T04:21:25;-0.60;99.50
33825;DHT22;20127;48.962;8.342;2023-02-27T04:24:34;-0.60;99.50
33825;DHT22;20127;48.962;8.342;2023-02-27T04:27:42;-0.60;99.60
33825;DHT22;20127;48.962;8.342;2023-02-27T04:30:57;-0.60;99.60
33825;DHT22;20127;48.962;8.342;2023-02-27T04:34:05;-0.60;99.80
33825;DHT22;20127;48.962;8.342;2023-02-27T04:37:10;-0.60;99.80
33825;DHT22;20127;48.962;8.342;2023-02-27T04:40:15;-0.60;99.80
33825;DHT22;20127;48.962;8.342;2023-02-27T04:43:19;-0.60;99.70
33825;DHT22;20127;48.962;8.342;2023-02-27T04:46:25;-0.60;99.70
33825;DHT22;20127;48.962;8.342;2023-02-27T04:49:30;-0.70;99.70
33825;DHT22;20127;48.962;8.342;2023-02-27T04:52:37;-0.70;99.80
33825;DHT22;20127;48.962;8.342;2023-02-27T04:55:42;-0.70;99.80
33825;DHT22;20127;48.962;8.342;2023-02-27T04:58:48;-0.70;99.90
33825;DHT22;20127;48.962;8.342;2023-02-27T05:01:55;-0.70;99.90
33825;DHT22;20127;48.962;8.342;2023-02-27T05:04:59;-0.70;99.90
33825;DHT22;20127;48.962;8.342;2023-02-27T05:08:07;-0.70;99.90
33825;DHT22;20127;48.962;8.342;2023-02-27T05:11:14;-0.70;99.90
33825;DHT22;20127;48.962;8.342;2023-02-27T05:14:20;-0.70;99.90
33825;DHT22;20127;48.962;8.342;2023-02-27T05:17:30;-0.70;99.90
33825;DHT22;20127;48.962;8.342;2023-02-27T05:20:41;-0.70;99.90
33825;DHT22;20127;48.962;8.342;2023-02-27T05:23:51;-0.70;99.90
33825;DHT22;20127;48.962;8.342;2023-02-27T05:27:15;-0.70;99.90
33825;DHT22;20127;48.962;8.342;2023-02-27T05:30:20;-0.70;99.90
33825;DHT22;20127;48.962;8.342;2023-02-27T05:33:30;-0.70;99.90
33825;DHT22;20127;48.962;8.342;2023-02-27T05:36:37;-0.80;99.90
33825;DHT22;20127;48.962;8.342;2023-02-27T05:39:41;-0.80;99.90
33825;DHT22;20127;48.962;8.342;2023-02-27T05:42:48;-0.80;99.90
33825;DHT22;20127;48.962;8.342;2023-02-27T05:45:56;-0.80;99.90
33825;DHT22;20127;48.962;8.342;2023-02-27T05:49:04;-0.80;99.90
33825;DHT22;20127;48.962;8.342;2023-02-27T05:52:11;-0.80;99.90
33825;DHT22;20127;48.962;8.342;2023-02-27T05:55:17;-0.80;99.90
33825;DHT22;20127;48.962;8.342;2023-02-27T05:58:22;-0.80;99.90
33825;DHT22;20127;48.962;8.342;2023-02-27T06:01:26;-0.90;99.90
33825;DHT22;20127;48.962;8.342;2023-02-27T06:04:29;-0.80;99.90
33825;DHT22;20127;48.962;8.342;2023-02-27T06:07:32;-0.80;99.90
33825;DHT22;20127;48.962;8.342;2023-02-27T06:10:33;-0.80;99.90
33825;DHT22;20127;48.962;8.342;2023-02-27T06:13:35;-0.80;99.90
33825;DHT22;20127;48.962;8.342;2023-02-27T06:16:37;-0.80;99.90
33825;DHT22;20127;48.962;8.342;2023-02-27T06:19:40;-0.80;99.90
33825;DHT22;20127;48.962;8.342;2023-02-27T06:22:41;-0.80;99.90
33825;DHT22;20127;48.962;8.342;2023-02-27T06:25:43;-0.80;99.90
33825;DHT22;20127;48.962;8.342;2023-02-27T06:28:46;-0.80;99.90
33825;DHT22;20127;48.962;8.342;2023-02-27T06:31:48;-0.80;99.90
33825;DHT22;20127;48.962;8.342;2023-02-27T06:34:51;-0.80;99.90
33825;DHT22;20127;48.962;8.342;2023-02-27T06:37:53;-0.90;99.90
33825;DHT22;20127;48.962;8.342;2023-02-27T06:40:54;-0.80;99.90
33825;DHT22;20127;48.962;8.342;2023-02-27T06:43:56;-0.80;99.90
33825;DHT22;20127;48.962;8.342;2023-02-27T06:46:58;-0.80;99.90
33825;DHT22;20127;48.962;8.342;2023-02-27T06:50:01;-0.80;99.90
33825;DHT22;20127;48.962;8.342;2023-02-27T06:53:03;-0.80;99.90
33825;DHT22;20127;48.962;8.342;2023-02-27T06:56:06;-0.70;99.90
33825;DHT22;20127;48.962;8.342;2023-02-27T06:59:08;-0.60;99.90
33825;DHT22;20127;48.962;8.342;2023-02-27T07:02:11;-0.60;99.90
33825;DHT22;20127;48.962;8.342;2023-02-27T07:05:15;-0.50;99.90
33825;DHT22;20127;48.962;8.342;2023-02-27T07:08:17;-0.40;99.90
33825;DHT22;20127;48.962;8.342;2023-02-27T07:11:19;-0.30;99.90
33825;DHT22;20127;48.962;8.342;2023-02-27T07:14:21;-0.20;99.80
33825;DHT22;20127;48.962;8.342;2023-02-27T07:17:22;-0.10;99.80
33825;DHT22;20127;48.962;8.342;2023-02-27T07:20:25;0.00;99.70
33825;DHT22;20127;48.962;8.342;2023-02-27T07:23:27;0.10;99.50
33825;DHT22;20127;48.962;8.342;2023-02-27T07:26:29;0.30;99.40
33825;DHT22;20127;48.962;8.342;2023-02-27T07:29:30;0.40;99.10
33825;DHT22;20127;48.962;8.342;2023-02-27T07:32:32;0.50;98.90
33825;DHT22;20127;48.962;8.342;2023-02-27T07:35:35;0.60;98.60
33825;DHT22;20127;48.962;8.342;2023-02-27T07:38:37;0.70;98.30
33825;DHT22;20127;48.962;8.342;2023-02-27T07:41:38;0.80;98.20
33825;DHT22;20127;48.962;8.342;2023-02-27T07:44:42;0.90;98.00
33825;DHT22;20127;48.962;8.342;2023-02-27T07:47:44;1.00;97.80
33825;DHT22;20127;48.962;8.342;2023-02-27T07:50:47;1.10;97.80
33825;DHT22;20127;48.962;8.342;2023-02-27T07:53:49;1.30;97.60
33825;DHT22;20127;48.962;8.342;2023-02-27T07:56:50;1.50;97.50
33825;DHT22;20127;48.962;8.342;2023-02-27T07:59:52;1.60;97.00
33825;DHT22;20127;48.962;8.342;2023-02-27T08:02:54;1.70;97.10
33825;DHT22;20127;48.962;8.342;2023-02-27T08:05:57;1.80;96.60
33825;DHT22;20127;48.962;8.342;2023-02-27T08:08:58;1.90;96.50
33825;DHT22;20127;48.962;8.342;2023-02-27T08:12:00;2.00;96.00
33825;DHT22;20127;48.962;8.342;2023-02-27T08:15:03;2.10;96.00
33825;DHT22;20127;48.962;8.342;2023-02-27T08:18:05;2.20;95.80
33825;DHT22;20127;48.962;8.342;2023-02-27T08:21:08;2.30;95.50
33825;DHT22;20127;48.962;8.342;2023-02-27T08:24:10;2.40;95.20
33825;DHT22;20127;48.962;8.342;2023-02-27T08:27:11;2.50;94.80
33825;DHT22;20127;48.962;8.342;2023-02-27T08:30:14;2.50;94.50
33825;DHT22;20127;48.962;8.342;2023-02-27T08:33:16;2.60;94.40
33825;DHT22;20127;48.962;8.342;2023-02-27T08:36:19;2.70;94.20
33825;DHT22;20127;48.962;8.342;2023-02-27T08:39:21;2.90;94.50
33825;DHT22;20127;48.962;8.342;2023-02-27T08:42:23;3.10;94.00
33825;DHT22;20127;48.962;8.342;2023-02-27T08:45:25;3.30;93.70
33825;DHT22;20127;48.962;8.342;2023-02-27T08:48:27;3.40;93.70
33825;DHT22;20127;48.962;8.342;2023-02-27T08:51:30;3.40;93.40
33825;DHT22;20127;48.962;8.342;2023-02-27T08:54:31;3.40;93.20
33825;DHT22;20127;48.962;8.342;2023-02-27T08:57:33;3.50;93.10
33825;DHT22;20127;48.962;8.342;2023-02-27T09:00:35;3.60;92.70
33825;DHT22;20127;48.962;8.342;2023-02-27T09:03:36;3.70;92.90
33825;DHT22;20127;48.962;8.342;2023-02-27T09:06:39;3.90;92.80
33825;DHT22;20127;48.962;8.342;2023-02-27T09:09:41;4.20;92.90
33825;DHT22;20127;48.962;8.342;2023-02-27T09:12:43;4.50;92.10
33825;DHT22;20127;48.962;8.342;2023-02-27T09:15:46;4.60;91.20
33825;DHT22;20127;48.962;8.342;2023-02-27T09:18:48;4.60;90.70
33825;DHT22;20127;48.962;8.342;2023-02-27T09:21:52;4.60;90.70
33825;DHT22;20127;48.962;8.342;2023-02-27T09:24:53;4.60;89.70
33825;DHT22;20127;48.962;8.342;2023-02-27T09:27:55;4.50;89.50
33825;DHT22;20127;48.962;8.342;2023-02-27T09:31:03;4.60;90.10
33825;DHT22;20127;48.962;8.342;2023-02-27T09:34:05;4.90;90.10
33825;DHT22;20127;48.962;8.342;2023-02-27T09:37:08;4.90;90.10
33825;DHT22;20127;48.962;8.342;2023-02-27T09:40:13;5.00;87.80
33825;DHT22;20127;48.962;8.342;2023-02-27T09:43:23;5.10;87.50
33825;DHT22;20127;48.962;8.342;2023-02-27T09:46:27;5.20;86.30
33825;DHT22;20127;48.962;8.342;2023-02-27T09:49:32;5.20;85.90
33825;DHT22;20127;48.962;8.342;2023-02-27T09:52:36;5.30;86.00
33825;DHT22;20127;48.962;8.342;2023-02-27T09:55:39;5.40;85.60
33825;DHT22;20127;48.962;8.342;2023-02-27T09:58:44;5.40;84.10
33825;DHT22;20127;48.962;8.342;2023-02-27T10:01:53;5.30;82.90
33825;DHT22;20127;48.962;8.342;2023-02-27T10:05:00;5.20;83.60
33825;DHT22;20127;48.962;8.342;2023-02-27T10:08:11;5.40;83.30
33825;DHT22;20127;48.962;8.342;2023-02-27T10:11:24;5.70;83.60
33825;DHT22;20127;48.962;8.342;2023-02-27T10:14:37;5.90;81.90
33825;DHT22;20127;48.962;8.342;2023-02-27T10:17:43;6.00;81.40
33825;DHT22;20127;48.962;8.342;2023-02-27T10:20:50;6.10;81.30
33825;DHT22;20127;48.962;8.342;2023-02-27T10:23:59;6.10;79.90
33825;DHT22;20127;48.962;8.342;2023-02-27T10:27:02;6.10;78.20
33825;DHT22;20127;48.962;8.342;2023-02-27T10:30:18;6.00;78.50
33825;DHT22;20127;48.962;8.342;2023-02-27T10:33:24;6.10;79.10
33825;DHT22;20127;48.962;8.342;2023-02-27T10:36:27;6.20;77.70
33825;DHT22;20127;48.962;8.342;2023-02-27T10:39:38;6.30;77.70
33825;DHT22;20127;48.962;8.342;2023-02-27T10:42:43;6.40;77.70
33825;DHT22;20127;48.962;8.342;2023-02-27T10:45:45;6.40;76.40
33825;DHT22;20127;48.962;8.342;2023-02-27T10:48:47;6.40;76.10
33825;DHT22;20127;48.962;8.342;2023-02-27T10:52:04;6.50;76.80
33825;DHT22;20127;48.962;8.342;2023-02-27T10:55:17;6.70;76.10
33825;DHT22;20127;48.962;8.342;2023-02-27T10:58:19;7.00;75.40
33825;DHT22;20127;48.962;8.342;2023-02-27T11:01:21;7.10;74.30
33825;DHT22;20127;48.962;8.342;2023-02-27T11:04:25;7.10;74.30
33825;DHT22;20127;48.962;8.342;2023-02-27T11:07:31;7.30;74.30
33825;DHT22;20127;48.962;8.342;2023-02-27T11:10:34;7.50;73.20
33825;DHT22;20127;48.962;8.342;2023-02-27T11:13:37;7.70;73.70
33825;DHT22;20127;48.962;8.342;2023-02-27T11:16:47;7.70;73.00
33825;DHT22;20127;48.962;8.342;2023-02-27T11:19:50;7.80;72.90
33825;DHT22;20127;48.962;8.342;2023-02-27T11:23:01;7.60;71.60
33825;DHT22;20127;48.962;8.342;2023-02-27T11:26:14;7.40;70.80
33825;DHT22;20127;48.962;8.342;2023-02-27T11:29:18;7.30;71.80
33825;DHT22;20127;48.962;8.342;2023-02-27T11:32:20;7.60;71.20
33825;DHT22;20127;48.962;8.342;2023-02-27T11:35:25;7.60;70.40
33825;DHT22;20127;48.962;8.342;2023-02-27T11:38:29;7.80;71.20
33825;DHT22;20127;48.962;8.342;2023-02-27T11:41:33;8.10;70.00
33825;DHT22;20127;48.962;8.342;2023-02-27T11:44:37;8.20;70.10
33825;DHT22;20127;48.962;8.342;2023-02-27T11:47:41;8.50;70.00
33825;DHT22;20127;48.962;8.342;2023-02-27T11:50:55;8.30;68.80
33825;DHT22;20127;48.962;8.342;2023-02-27T11:54:07;8.00;68.60
33825;DHT22;20127;48.962;8.342;2023-02-27T11:57:20;7.70;68.70
33825;DHT22;20127;48.962;8.342;2023-02-27T12:00:28;7.50;68.30
33825;DHT22;20127;48.962;8.342;2023-02-27T12:03:36;7.30;69.30
33825;DHT22;20127;48.962;8.342;2023-02-27T12:06:45;7.60;69.10
33825;DHT22;20127;48.962;8.342;2023-02-27T12:09:56;7.70;68.20
33825;DHT22;20127;48.962;8.342;2023-02-27T12:13:03;7.70;68.70
33825;DHT22;20127;48.962;8.342;2023-02-27T12:16:14;7.90;67.40
33825;DHT22;20127;48.962;8.342;2023-02-27T12:19:23;7.90;67.50
33825;DHT22;20127;48.962;8.342;2023-02-27T12:22:29;8.10;67.60
33825;DHT22;20127;48.962;8.342;2023-02-27T12:25:37;8.20;65.50
33825;DHT22;20127;48.962;8.342;2023-02-27T12:28:51;8.00;66.10
33825;DHT22;20127;48.962;8.342;2023-02-27T12:31:59;8.40;66.70
33825;DHT22;20127;48.962;8.342;2023-02-27T12:35:11;8.50;65.40
33825;DHT22;20127;48.962;8.342;2023-02-27T12:38:14;8.70;65.00
33825;DHT22;20127;48.962;8.342;2023-02-27T12:41:31;8.70;64.40
33825;DHT22;20127;48.962;8.342;2023-02-27T12:44:50;8.70;64.60
33825;DHT22;20127;48.962;8.342;2023-02-27T12:48:02;8.90;63.00
33825;DHT22;20127;48.962;8.342;2023-02-27T12:51:25;9.10;63.00
33825;DHT22;20127;48.962;8.342;2023-02-27T12:54:34;9.00;63.10
33825;DHT22;20127;48.962;8.342;2023-02-27T12:57:48;8.90;62.50
33825;DHT22;20127;48.962;8.342;2023-02-27T13:00:57;8.80;62.50
33825;DHT22;20127;48.962;8.342;2023-02-27T13:04:03;8.40;61.70
33825;DHT22;20127;48.962;8.342;2023-02-27T13:07:10;8.10;61.70
33825;DHT22;20127;48.962;8.342;2023-02-27T13:10:18;7.70;61.80
33825;DHT22;20127;48.962;8.342;2023-02-27T13:13:26;7.30;62.20
33825;DHT22;20127;48.962;8.342;2023-02-27T13:16:33;7.40;64.00
33825;DHT22;20127;48.962;8.342;2023-02-27T13:19:39;7.50;62.10
33825;DHT22;20127;48.962;8.342;2023-02-27T13:22:46;7.70;62.00
33825;DHT22;20127;48.962;8.342;2023-02-27T13:25:53;7.70;61.40
33825;DHT22;20127;48.962;8.342;2023-02-27T13:28:56;7.60;61.40
33825;DHT22;20127;48.962;8.342;2023-02-27T13:32:09;7.60;61.20
33825;DHT22;20127;48.962;8.342;2023-02-27T13:35:25;7.60;61.70
33825;DHT22;20127;48.962;8.342;2023-02-27T13:38:40;7.80;61.50
33825;DHT22;20127;48.962;8.342;2023-02-27T13:41:42;7.70;61.50
33825;DHT22;20127;48.962;8.342;2023-02-27T13:44:45;7.80;61.80
33825;DHT22;20127;48.962;8.342;2023-02-27T13:47:50;8.10;61.90
33825;DHT22;20127;48.962;8.342;2023-02-27T13:50:51;8.30;61.30
33825;DHT22;20127;48.962;8.342;2023-02-27T13:54:19;8.50;60.90
33825;DHT22;20127;48.962;8.342;2023-02-27T13:57:25;8.70;60.50
33825;DHT22;20127;48.962;8.342;2023-02-27T14:00:30;8.70;59.90
33825;DHT22;20127;48.962;8.342;2023-02-27T14:03:33;8.40;59.40
33825;DHT22;20127;48.962;8.342;2023-02-27T14:06:41;8.40;59.10
33825;DHT22;20127;48.962;8.342;2023-02-27T14:09:46;8.00;59.80
33825;DHT22;20127;48.962;8.342;2023-02-27T14:12:48;7.70;60.50
33825;DHT22;20127;48.962;8.342;2023-02-27T14:15:55;8.00;61.10
33825;DHT22;20127;48.962;8.342;2023-02-27T14:19:01;8.20;61.10
33825;DHT22;20127;48.962;8.342;2023-02-27T14:22:34;8.20;60.10
33825;DHT22;20127;48.962;8.342;2023-02-27T14:25:39;8.50;60.70
33825;DHT22;20127;48.962;8.342;2023-02-27T14:28:46;8.40;59.60
33825;DHT22;20127;48.962;8.342;2023-02-27T14:31:50;8.20;59.80
33825;DHT22;20127;48.962;8.342;2023-02-27T14:34:54;7.70;59.80
33825;DHT22;20127;48.962;8.342;2023-02-27T14:37:59;7.70;60.40
33825;DHT22;20127;48.962;8.342;2023-02-27T14:41:16;7.80;60.60
33825;DHT22;20127;48.962;8.342;2023-02-27T14:44:23;8.00;60.50
33825;DHT22;20127;48.962;8.342;2023-02-27T14:47:30;8.20;60.50
33825;DHT22;20127;48.962;8.342;2023-02-27T14:50:33;8.50;59.60
33825;DHT22;20127;48.962;8.342;2023-02-27T14:53:38;8.50;58.90
33825;DHT22;20127;48.962;8.342;2023-02-27T14:56:44;8.20;59.20
33825;DHT22;20127;48.962;8.342;2023-02-27T14:59:53;7.60;58.60
33825;DHT22;20127;48.962;8.342;2023-02-27T15:02:57;7.50;60.20
33825;DHT22;20127;48.962;8.342;2023-02-27T15:06:01;7.70;60.80
33825;DHT22;20127;48.962;8.342;2023-02-27T15:09:05;7.80;60.80
33825;DHT22;20127;48.962;8.342;2023-02-27T15:12:08;7.60;60.60
33825;DHT22;20127;48.962;8.342;2023-02-27T15:15:16;7.30;60.40
33825;DHT22;20127;48.962;8.342;2023-02-27T15:18:21;6.90;60.30
33825;DHT22;20127;48.962;8.342;2023-02-27T15:21:26;6.50;61.00
33825;DHT22;20127;48.962;8.342;2023-02-27T15:24:31;6.10;61.50
33825;DHT22;20127;48.962;8.342;2023-02-27T15:27:34;5.90;61.90
33825;DHT22;20127;48.962;8.342;2023-02-27T15:30:37;5.70;62.30
33825;DHT22;20127;48.962;8.342;2023-02-27T15:33:40;5.60;62.50
33825;DHT22;20127;48.962;8.342;2023-02-27T15:36:45;5.40;63.10
33825;DHT22;20127;48.962;8.342;2023-02-27T15:39:50;5.30;63.50
33825;DHT22;20127;48.962;8.342;2023-02-27T15:42:53;5.20;63.70
33825;DHT22;20127;48.962;8.342;2023-02-27T15:45:56;5.00;63.80
33825;DHT22;20127;48.962;8.342;2023-02-27T15:48:58;5.00;64.00
33825;DHT22;20127;48.962;8.342;2023-02-27T15:52:03;5.00;64.40
33825;DHT22;20127;48.962;8.342;2023-02-27T15:55:12;4.90;64.60
33825;DHT22;20127;48.962;8.342;2023-02-27T15:58:20;4.80;64.70
33825;DHT22;20127;48.962;8.342;2023-02-27T16:01:25;4.70;65.00
33825;DHT22;20127;48.962;8.342;2023-02-27T16:04:29;4.70;65.20
33825;DHT22;20127;48.962;8.342;2023-02-27T16:07:38;4.60;64.80
33825;DHT22;20127;48.962;8.342;2023-02-27T16:10:44;4.50;64.80
33825;DHT22;20127;48.962;8.342;2023-02-27T16:13:47;4.50;65.10
33825;DHT22;20127;48.962;8.342;2023-02-27T16:16:54;4.40;65.70
33825;DHT22;20127;48.962;8.342;2023-02-27T16:19:57;4.30;65.30
33825;DHT22;20127;48.962;8.342;2023-02-27T16:23:03;4.30;65.40
33825;DHT22;20127;48.962;8.342;2023-02-27T16:26:20;4.30;65.60
33825;DHT22;20127;48.962;8.342;2023-02-27T16:29:30;4.30;65.80
33825;DHT22;20127;48.962;8.342;2023-02-27T16:32:39;4.30;65.90
33825;DHT22;20127;48.962;8.342;2023-02-27T16:35:43;4.30;66.00
33825;DHT22;20127;48.962;8.342;2023-02-27T16:38:45;4.30;66.10
33825;DHT22;20127;48.962;8.342;2023-02-27T16:41:48;4.30;66.10
33825;DHT22;20127;48.962;8.342;2023-02-27T16:44:49;4.30;66.00
33825;DHT22;20127;48.962;8.342;2023-02-27T16:47:53;4.30;66.00
33825;DHT22;20127;48.962;8.342;2023-02-27T16:50:55;4.30;66.00
33825;DHT22;20127;48.962;8.342;2023-02-27T16:53:57;4.30;66.10
33825;DHT22;20127;48.962;8.342;2023-02-27T16:57:00;4.20;66.20
33825;DHT22;20127;48.962;8.342;2023-02-27T17:00:03;4.20;66.40
33825;DHT22;20127;48.962;8.342;2023-02-27T17:03:07;4.20;66.50
33825;DHT22;20127;48.962;8.342;2023-02-27T17:06:10;4.20;66.60
33825;DHT22;20127;48.962;8.342;2023-02-27T17:09:12;4.10;66.70
33825;DHT22;20127;48.962;8.342;2023-02-27T17:12:15;4.00;67.20
33825;DHT22;20127;48.962;8.342;2023-02-27T17:15:16;4.00;66.70
33825;DHT22;20127;48.962;8.342;2023-02-27T17:18:19;3.90;66.80
33825;DHT22;20127;48.962;8.342;2023-02-27T17:21:22;3.90;66.90
33825;DHT22;20127;48.962;8.342;2023-02-27T17:24:23;3.90;67.10
33825;DHT22;20127;48.962;8.342;2023-02-27T17:27:26;3.80;67.20
33825;DHT22;20127;48.962;8.342;2023-02-27T17:30:28;3.80;67.20
33825;DHT22;20127;48.962;8.342;2023-02-27T17:33:30;3.80;67.30
33825;DHT22;20127;48.962;8.342;2023-02-27T17:36:32;3.80;67.40
33825;DHT22;20127;48.962;8.342;2023-02-27T17:39:33;3.70;67.40
33825;DHT22;20127;48.962;8.342;2023-02-27T17:42:38;3.70;67.40
33825;DHT22;20127;48.962;8.342;2023-02-27T17:45:40;3.70;67.60
33825;DHT22;20127;48.962;8.342;2023-02-27T17:48:41;3.70;67.80
33825;DHT22;20127;48.962;8.342;2023-02-27T17:51:43;3.60;67.80
33825;DHT22;20127;48.962;8.342;2023-02-27T17:54:45;3.60;67.80
33825;DHT22;20127;48.962;8.342;2023-02-27T17:57:48;3.60;67.80
33825;DHT22;20127;48.962;8.342;2023-02-27T18:00:49;3.60;67.80
33825;DHT22;20127;48.962;8.342;2023-02-27T18:03:52;3.60;68.00
33825;DHT22;20127;48.962;8.342;2023-02-27T18:06:54;3.60;68.10
33825;DHT22;20127;48.962;8.342;2023-02-27T18:09:55;3.50;68.10
33825;DHT22;20127;48.962;8.342;2023-02-27T18:12:58;3.50;68.20
33825;DHT22;20127;48.962;8.342;2023-02-27T18:16:00;3.50;68.50
33825;DHT22;20127;48.962;8.342;2023-02-27T18:19:03;3.50;68.50
33825;DHT22;20127;48.962;8.342;2023-02-27T18:22:05;3.50;68.70
33825;DHT22;20127;48.962;8.342;2023-02-27T18:25:07;3.50;68.70
33825;DHT22;20127;48.962;8.342;2023-02-27T18:28:10;3.50;68.80
33825;DHT22;20127;48.962;8.342;2023-02-27T18:31:19;3.50;68.90
33825;DHT22;20127;48.962;8.342;2023-02-27T18:34:21;3.50;69.00
33825;DHT22;20127;48.962;8.342;2023-02-27T18:37:24;3.50;69.10
33825;DHT22;20127;48.962;8.342;2023-02-27T18:40:25;3.50;69.10
33825;DHT22;20127;48.962;8.342;2023-02-27T18:43:28;3.50;69.20
33825;DHT22;20127;48.962;8.342;2023-02-27T18:46:31;3.50;69.30
33825;DHT22;20127;48.962;8.342;2023-02-27T18:49:34;3.50;69.40
33825;DHT22;20127;48.962;8.342;2023-02-27T18:52:35;3.40;69.50
33825;DHT22;20127;48.962;8.342;2023-02-27T18:55:37;3.50;69.60
33825;DHT22;20127;48.962;8.342;2023-02-27T18:58:40;3.40;69.70
33825;DHT22;20127;48.962;8.342;2023-02-27T19:01:42;3.40;69.80
33825;DHT22;20127;48.962;8.342;2023-02-27T19:04:44;3.40;69.90
33825;DHT22;20127;48.962;8.342;2023-02-27T19:07:46;3.40;70.10
33825;DHT22;20127;48.962;8.342;2023-02-27T19:10:48;3.40;70.20
33825;DHT22;20127;48.962;8.342;2023-02-27T19:13:52;3.40;70.40
33825;DHT22;20127;48.962;8.342;2023-02-27T19:16:53;3.30;70.50
33825;DHT22;20127;48.962;8.342;2023-02-27T19:19:56;3.30;70.60
33825;DHT22;20127;48.962;8.342;2023-02-27T19:22:57;3.30;70.80
33825;DHT22;20127;48.962;8.342;2023-02-27T19:25:59;3.30;70.90
33825;DHT22;20127;48.962;8.342;2023-02-27T19:29:03;3.30;71.10
33825;DHT22;20127;48.962;8.342;2023-02-27T19:32:06;3.30;71.30
33825;DHT22;20127;48.962;8.342;2023-02-27T19:35:09;3.20;71.40
33825;DHT22;20127;48.962;8.342;2023-02-27T19:38:13;3.20;71.50
33825;DHT22;20127;48.962;8.342;2023-02-27T19:41:15;3.20;71.60
33825;DHT22;20127;48.962;8.342;2023-02-27T19:44:19;3.10;71.80
33825;DHT22;20127;48.962;8.342;2023-02-27T19:47:20;3.00;72.00
33825;DHT22;20127;48.962;8.342;2023-02-27T19:50:23;2.90;72.20
33825;DHT22;20127;48.962;8.342;2023-02-27T19:53:25;2.80;72.40
33825;DHT22;20127;48.962;8.342;2023-02-27T19:56:27;2.80;72.60